createdAt,value
2019-05-18T00:00:39.054Z,16.73
2019-05-18T00:03:14.142Z,16.63
2019-05-18T00:05:49.234Z,17.07
2019-05-18T00:08:24.368Z,17.80
2019-05-18T00:10:59.396Z,17.37
2019-05-18T00:13:34.617Z,19.27
2019-05-18T00:16:09.590Z,17.10
2019-05-18T00:18:44.667Z,16.90
2019-05-18T00:21:20.000Z,18.30
2019-05-18T00:23:55.093Z,18.27
2019-05-18T00:26:30.071Z,18.57
2019-05-18T00:29:07.940Z,16.67
2019-05-18T00:31:43.028Z,21.20
2019-05-18T00:34:18.191Z,18.73
2019-05-18T00:36:53.520Z,19.43
2019-05-18T00:39:28.702Z,20.07
2019-05-18T00:42:03.786Z,19.13
2019-05-18T00:44:38.805Z,19.50
2019-05-18T00:47:13.879Z,20.30
2019-05-18T00:49:49.201Z,19.50
2019-05-18T00:52:24.280Z,18.57
2019-05-18T00:54:59.405Z,19.10
2019-05-18T00:57:34.505Z,21.23
2019-05-18T01:00:10.305Z,19.30
2019-05-18T01:02:47.904Z,19.07
2019-05-18T01:05:22.940Z,21.50
2019-05-18T01:07:57.937Z,19.57
2019-05-18T01:10:33.782Z,21.30
2019-05-18T01:13:08.799Z,20.70
2019-05-18T01:15:43.821Z,23.10
2019-05-18T01:18:18.921Z,21.00
2019-05-18T01:20:54.232Z,21.97
2019-05-18T01:23:29.492Z,20.83
2019-05-18T01:26:04.718Z,23.93
2019-05-18T01:28:39.818Z,20.00
2019-05-18T01:31:14.900Z,22.30
2019-05-18T01:33:49.898Z,21.10
2019-05-18T01:36:25.023Z,21.40
2019-05-18T01:39:00.018Z,20.90
2019-05-18T01:41:35.462Z,23.10
2019-05-18T01:44:10.467Z,23.33
2019-05-18T01:46:45.464Z,21.80
2019-05-18T01:49:20.574Z,24.53
2019-05-18T01:51:55.569Z,22.03
2019-05-18T01:54:30.706Z,22.10
2019-05-18T01:57:05.909Z,22.03
2019-05-18T01:59:40.891Z,22.93
2019-05-18T02:02:15.914Z,25.10
2019-05-18T02:04:50.935Z,26.63
2019-05-18T02:07:26.063Z,24.23
2019-05-18T02:10:01.186Z,24.13
2019-05-18T02:12:36.203Z,30.60
2019-05-18T02:15:12.342Z,23.80
2019-05-18T02:17:47.540Z,24.70
2019-05-18T02:20:22.656Z,24.30
2019-05-18T02:22:57.751Z,23.07
2019-05-18T02:25:32.844Z,24.90
2019-05-18T02:28:07.818Z,23.47
2019-05-18T02:30:42.896Z,26.20
2019-05-18T02:33:17.952Z,23.80
2019-05-18T02:35:53.047Z,27.00
2019-05-18T02:38:28.057Z,26.60
2019-05-18T02:41:03.361Z,25.00
2019-05-18T02:43:38.418Z,27.47
2019-05-18T02:46:13.445Z,24.60
2019-05-18T02:48:50.687Z,24.00
2019-05-18T02:51:25.256Z,23.90
2019-05-18T02:54:00.360Z,24.90
2019-05-18T02:56:35.494Z,25.73
2019-05-18T02:59:10.477Z,23.93
2019-05-18T03:01:45.533Z,27.73
2019-05-18T03:04:20.561Z,29.10
2019-05-18T03:06:55.743Z,28.60
2019-05-18T03:09:30.737Z,26.80
2019-05-18T03:12:05.890Z,26.73
2019-05-18T03:14:40.873Z,35.90
2019-05-18T03:17:15.892Z,30.80
2019-05-18T03:19:50.974Z,31.40
2019-05-18T03:22:26.037Z,30.50
2019-05-18T03:25:01.037Z,30.80
2019-05-18T03:27:36.182Z,30.17
2019-05-18T03:30:12.709Z,31.23
2019-05-18T03:32:47.830Z,31.00
2019-05-18T03:35:22.826Z,29.40
2019-05-18T03:37:57.838Z,28.37
2019-05-18T03:40:33.142Z,29.00
2019-05-18T03:43:08.151Z,27.40
2019-05-18T03:45:43.257Z,32.27
2019-05-18T03:48:18.293Z,36.03
2019-05-18T03:50:53.332Z,30.80
2019-05-18T03:53:28.345Z,28.80
2019-05-18T03:56:04.331Z,28.30
2019-05-18T03:58:39.465Z,32.40
2019-05-18T04:01:14.590Z,30.17
2019-05-18T04:03:49.611Z,34.13
2019-05-18T04:06:25.653Z,27.63
2019-05-18T04:09:00.673Z,28.50
2019-05-18T04:11:37.164Z,31.67
2019-05-18T04:14:12.431Z,32.83
2019-05-18T04:16:47.425Z,30.20
2019-05-18T04:19:22.562Z,30.97
2019-05-18T04:21:57.684Z,31.63
2019-05-18T04:24:33.008Z,32.23
2019-05-18T04:27:08.003Z,31.77
2019-05-18T04:29:43.314Z,31.73
2019-05-18T04:32:18.315Z,31.47
2019-05-18T04:34:53.450Z,30.90
2019-05-18T04:37:28.555Z,29.13
2019-05-18T04:40:03.723Z,33.77
2019-05-18T04:42:38.860Z,33.40
2019-05-18T04:45:14.112Z,34.23
2019-05-18T04:47:51.374Z,34.90
2019-05-18T04:50:27.168Z,28.73
2019-05-18T04:53:02.290Z,29.97
2019-05-18T04:55:37.623Z,30.80
2019-05-18T04:58:12.647Z,28.57
2019-05-18T05:00:47.843Z,28.93
2019-05-18T05:03:22.946Z,28.80
2019-05-18T05:05:57.949Z,27.73
2019-05-18T05:08:33.168Z,29.47
2019-05-18T05:11:08.180Z,28.30
2019-05-18T05:13:43.889Z,28.07
2019-05-18T05:16:20.040Z,25.27
2019-05-18T05:18:55.214Z,26.13
2019-05-18T05:21:30.783Z,27.40
2019-05-18T05:24:06.326Z,24.80
2019-05-18T05:26:41.465Z,25.07
2019-05-18T05:29:16.578Z,24.87
2019-05-18T05:31:51.613Z,25.30
2019-05-18T05:34:26.610Z,25.40
2019-05-18T05:37:01.739Z,25.73
2019-05-18T05:39:36.740Z,25.43
2019-05-18T05:42:11.931Z,26.10
2019-05-18T05:44:46.997Z,25.27
2019-05-18T05:47:21.994Z,24.93
2019-05-18T05:49:57.029Z,24.07
2019-05-18T05:52:32.013Z,25.00
2019-05-18T05:55:07.762Z,25.53
2019-05-18T05:57:42.865Z,25.50
2019-05-18T06:00:18.120Z,27.50
2019-05-18T06:02:53.415Z,26.03
2019-05-18T06:05:30.353Z,25.80
2019-05-18T06:08:06.429Z,25.30
2019-05-18T06:10:41.556Z,26.53
2019-05-18T06:13:16.533Z,26.73
2019-05-18T06:15:51.615Z,27.93
2019-05-18T06:18:26.870Z,25.07
2019-05-18T06:21:02.010Z,25.80
2019-05-18T06:23:37.353Z,28.33
2019-05-18T06:26:12.449Z,29.40
2019-05-18T06:28:47.519Z,24.03
2019-05-18T06:31:23.283Z,23.97
2019-05-18T06:33:58.468Z,23.83
2019-05-18T06:36:33.823Z,24.80
2019-05-18T06:39:09.855Z,23.20
2019-05-18T06:41:44.999Z,25.77
2019-05-18T06:44:20.162Z,23.60
2019-05-18T06:46:55.199Z,24.57
2019-05-18T06:49:30.344Z,23.87
2019-05-18T06:52:05.638Z,24.40
2019-05-18T06:54:40.718Z,24.73
2019-05-18T06:57:17.388Z,22.77
2019-05-18T06:59:52.795Z,22.27
2019-05-18T07:02:27.878Z,23.97
2019-05-18T07:05:04.134Z,22.13
2019-05-18T07:07:39.561Z,21.67
2019-05-18T07:10:15.377Z,22.47
2019-05-18T07:12:50.542Z,21.10
2019-05-18T07:15:25.678Z,22.57
2019-05-18T07:18:00.767Z,23.33
2019-05-18T07:20:35.884Z,23.37
2019-05-18T07:23:11.103Z,23.10
2019-05-18T07:25:46.184Z,22.17
2019-05-18T07:28:21.320Z,24.10
2019-05-18T07:30:56.424Z,22.40
2019-05-18T07:33:31.765Z,21.27
2019-05-18T07:36:07.446Z,21.03
2019-05-18T07:38:42.571Z,20.43
2019-05-18T07:41:17.803Z,21.20
2019-05-18T07:43:53.341Z,20.10
2019-05-18T07:46:28.374Z,20.27
2019-05-18T07:49:04.661Z,20.67
2019-05-18T07:51:40.208Z,20.30
2019-05-18T07:54:15.384Z,19.77
2019-05-18T07:56:50.766Z,19.30
2019-05-18T07:59:26.104Z,21.00
2019-05-18T08:02:01.195Z,21.63
2019-05-18T08:04:39.687Z,19.23
2019-05-18T08:07:13.081Z,20.33
2019-05-18T08:09:48.190Z,18.93
2019-05-18T08:12:23.189Z,20.03
2019-05-18T08:14:58.371Z,20.23
2019-05-18T08:17:36.035Z,20.00
2019-05-18T08:20:11.765Z,19.13
2019-05-18T08:22:55.485Z,18.97
2019-05-18T08:25:30.650Z,17.90
2019-05-18T08:28:05.761Z,18.93
2019-05-18T08:30:41.037Z,18.93
2019-05-18T08:33:16.120Z,18.53
2019-05-18T08:35:51.265Z,17.57
2019-05-18T08:38:26.288Z,17.60
2019-05-18T08:41:01.453Z,18.03
2019-05-18T08:43:36.567Z,18.20
2019-05-18T08:46:11.733Z,15.73
2019-05-18T08:48:46.979Z,17.57
2019-05-18T08:51:22.479Z,14.93
2019-05-18T08:53:57.866Z,16.07
2019-05-18T08:56:33.260Z,15.43
2019-05-18T08:59:08.277Z,16.57
2019-05-18T09:01:43.947Z,15.10
2019-05-18T09:04:19.044Z,15.90
2019-05-18T09:06:54.079Z,15.13
2019-05-18T09:09:32.791Z,14.87
2019-05-18T09:12:07.841Z,15.73
2019-05-18T09:14:43.049Z,14.27
2019-05-18T09:17:18.070Z,15.30
2019-05-18T09:19:53.113Z,16.93
2019-05-18T09:22:28.261Z,15.87
2019-05-18T09:25:03.318Z,14.97
2019-05-18T09:27:38.597Z,16.60
2019-05-18T09:30:13.951Z,14.00
2019-05-18T09:32:49.251Z,15.37
2019-05-18T09:35:24.260Z,14.73
2019-05-18T09:38:00.249Z,15.03
2019-05-18T09:40:35.433Z,14.60
2019-05-18T09:43:11.616Z,14.47
2019-05-18T09:45:46.653Z,14.20
2019-05-18T09:48:22.438Z,14.63
2019-05-18T09:50:57.595Z,12.90
2019-05-18T09:53:33.407Z,14.13
2019-05-18T09:56:08.796Z,13.57
2019-05-18T09:58:44.961Z,13.13
2019-05-18T10:01:21.299Z,11.73
2019-05-18T10:03:57.333Z,15.00
2019-05-18T10:06:32.491Z,11.37
2019-05-18T10:09:10.836Z,11.90
2019-05-18T10:11:45.957Z,10.80
2019-05-18T10:14:21.062Z,14.20
2019-05-18T10:16:56.121Z,13.23
2019-05-18T10:19:31.349Z,12.17
2019-05-18T10:22:06.397Z,11.60
2019-05-18T10:24:41.476Z,10.73
2019-05-18T10:27:16.503Z,10.67
2019-05-18T10:29:51.587Z,10.70
2019-05-18T10:32:26.758Z,11.83
2019-05-18T10:35:01.829Z,10.87
2019-05-18T10:37:36.902Z,11.90
2019-05-18T10:40:14.678Z,11.00
2019-05-18T10:42:50.042Z,11.03
2019-05-18T10:45:26.545Z,9.67
2019-05-18T10:48:01.710Z,10.50
2019-05-18T10:50:36.780Z,9.37
2019-05-18T10:53:28.458Z,10.13
2019-05-18T10:55:53.775Z,10.37
2019-05-18T10:58:28.872Z,8.83
2019-05-18T11:01:04.384Z,11.10
2019-05-18T11:03:39.731Z,9.30
2019-05-18T11:06:15.005Z,9.67
2019-05-18T11:08:50.942Z,10.13
2019-05-18T11:11:26.066Z,8.27
2019-05-18T11:14:01.475Z,8.13
2019-05-18T11:16:36.496Z,8.10
2019-05-18T11:19:11.829Z,10.23
2019-05-18T11:21:46.834Z,8.03
2019-05-18T11:24:23.315Z,9.23
2019-05-18T11:26:58.338Z,9.70
2019-05-18T11:29:33.702Z,8.07
2019-05-18T11:32:09.931Z,7.87
2019-05-18T11:34:45.434Z,8.63
2019-05-18T11:37:20.488Z,8.07
2019-05-18T11:39:55.630Z,6.43
2019-05-18T11:42:30.618Z,6.97
2019-05-18T11:45:06.797Z,5.80
2019-05-18T11:47:41.931Z,6.00
2019-05-18T11:50:17.547Z,5.10
2019-05-18T11:52:52.803Z,4.73
2019-05-18T11:55:27.818Z,5.70
2019-05-18T11:58:02.809Z,6.30
2019-05-18T12:00:37.971Z,5.70
2019-05-18T12:03:12.996Z,7.23
2019-05-18T12:05:48.087Z,5.53
2019-05-18T12:08:24.141Z,5.97
2019-05-18T12:11:00.239Z,5.13
2019-05-18T12:13:35.205Z,5.50
2019-05-18T12:16:10.325Z,5.23
2019-05-18T12:18:45.432Z,5.40
2019-05-18T12:21:21.917Z,10.33
2019-05-18T12:23:57.130Z,5.90
2019-05-18T12:26:32.243Z,5.80
2019-05-18T12:29:07.273Z,4.72
2019-05-18T12:31:44.385Z,5.50
2019-05-18T12:34:21.351Z,5.10
2019-05-18T12:36:57.163Z,6.47
2019-05-18T12:39:32.279Z,5.43
2019-05-18T12:42:07.786Z,4.77
2019-05-18T12:44:42.974Z,7.20
2019-05-18T12:47:17.949Z,4.10
2019-05-18T12:49:53.078Z,4.10
2019-05-18T12:52:28.176Z,3.50
2019-05-18T12:55:03.336Z,4.83
2019-05-18T12:57:39.385Z,5.63
2019-05-18T13:00:16.640Z,3.73
2019-05-18T13:02:51.806Z,3.77
2019-05-18T13:05:26.917Z,4.57
2019-05-18T13:08:02.029Z,3.93
2019-05-18T13:10:37.408Z,3.70
2019-05-18T13:13:12.431Z,3.30
2019-05-18T13:15:47.655Z,3.90
2019-05-18T13:18:22.754Z,4.03
2019-05-18T13:20:57.886Z,3.97
2019-05-18T13:23:33.004Z,11.17
2019-05-18T13:26:08.134Z,3.77
2019-05-18T13:28:43.231Z,5.13
2019-05-18T13:31:18.332Z,3.93
2019-05-18T13:33:53.311Z,4.33
2019-05-18T13:36:28.522Z,2.70
2019-05-18T13:39:05.631Z,3.10
2019-05-18T13:41:41.472Z,12.10
2019-05-18T13:44:16.560Z,3.53
2019-05-18T13:46:51.742Z,4.57
2019-05-18T13:49:26.808Z,4.03
2019-05-18T13:52:01.829Z,4.00
2019-05-18T13:54:36.817Z,4.10
2019-05-18T13:57:11.845Z,3.37
2019-05-18T13:59:51.654Z,8.13
2019-05-18T14:02:26.776Z,3.87
2019-05-18T14:05:02.049Z,7.60
2019-05-18T14:07:37.243Z,3.20
2019-05-18T14:10:14.091Z,3.50
2019-05-18T14:12:49.308Z,9.90
2019-05-18T14:15:24.341Z,5.10
2019-05-18T14:17:59.484Z,4.57
2019-05-18T14:20:34.502Z,2.80
2019-05-18T14:23:10.659Z,4.30
2019-05-18T14:25:46.258Z,3.50
2019-05-18T14:28:21.587Z,5.40
2019-05-18T14:30:56.558Z,3.83
2019-05-18T14:33:32.631Z,5.10
2019-05-18T14:36:07.686Z,3.10
2019-05-18T14:38:42.696Z,4.17
2019-05-18T14:41:17.788Z,3.90
2019-05-18T14:43:52.765Z,4.73
2019-05-18T14:46:27.898Z,4.17
2019-05-18T14:49:02.891Z,3.73
2019-05-18T14:51:38.022Z,3.47
2019-05-18T14:54:12.994Z,3.40
2019-05-18T14:56:48.132Z,3.37
2019-05-18T14:59:23.096Z,3.20
2019-05-18T15:01:59.335Z,3.93
2019-05-18T15:04:34.334Z,3.30
2019-05-18T15:07:09.643Z,3.87
2019-05-18T15:09:44.679Z,3.27
2019-05-18T15:12:19.739Z,3.40
2019-05-18T15:14:54.812Z,2.40
2019-05-18T15:17:29.993Z,2.77
2019-05-18T15:20:05.456Z,2.97
2019-05-18T15:22:40.554Z,3.33
2019-05-18T15:25:16.306Z,2.70
2019-05-18T15:27:53.185Z,3.00
2019-05-18T15:30:28.433Z,2.60
2019-05-18T15:33:03.593Z,2.90
2019-05-18T15:35:38.725Z,3.90
2019-05-18T15:38:13.786Z,4.20
2019-05-18T15:40:49.674Z,2.70
2019-05-18T15:43:24.732Z,2.63
2019-05-18T15:45:59.682Z,2.40
2019-05-18T15:48:34.991Z,2.70
2019-05-18T15:51:10.191Z,2.83
2019-05-18T15:53:45.260Z,2.63
2019-05-18T15:56:20.368Z,2.67
2019-05-18T15:58:55.443Z,3.20
2019-05-18T16:01:30.530Z,3.70
2019-05-18T16:04:06.666Z,5.00
2019-05-18T16:06:41.808Z,3.70
2019-05-18T16:09:17.027Z,4.23
2019-05-18T16:11:52.040Z,7.53
2019-05-18T16:14:27.165Z,4.90
2019-05-18T16:17:02.288Z,4.13
2019-05-18T16:19:37.441Z,4.03
2019-05-18T16:22:12.452Z,8.17
2019-05-18T16:24:47.672Z,9.83
2019-05-18T16:27:22.699Z,4.83
2019-05-18T16:30:03.187Z,7.53
2019-05-18T16:32:38.250Z,6.03
2019-05-18T16:35:15.261Z,4.27
2019-05-18T16:37:50.297Z,3.57
2019-05-18T16:40:26.658Z,3.90
2019-05-18T16:43:01.648Z,3.43
2019-05-18T16:45:36.634Z,3.90
2019-05-18T16:48:11.638Z,3.80
2019-05-18T16:50:46.620Z,14.57
2019-05-18T16:53:21.737Z,10.60
2019-05-18T16:55:56.928Z,5.30
2019-05-18T16:58:31.911Z,3.93
2019-05-18T17:01:07.396Z,3.73
2019-05-18T17:03:42.634Z,3.53
2019-05-18T17:06:17.722Z,3.70
2019-05-18T17:08:54.072Z,3.83
2019-05-18T17:11:29.073Z,3.40
2019-05-18T17:14:04.674Z,3.30
2019-05-18T17:16:39.849Z,2.90
2019-05-18T17:19:15.029Z,2.90
2019-05-18T17:21:50.303Z,3.00
2019-05-18T17:24:25.405Z,5.30
2019-05-18T17:27:00.451Z,5.10
2019-05-18T17:29:35.721Z,6.30
2019-05-18T17:32:10.756Z,6.43
2019-05-18T17:34:45.846Z,5.67
2019-05-18T17:37:20.935Z,6.23
2019-05-18T17:39:56.085Z,5.87
2019-05-18T17:42:31.349Z,6.30
2019-05-18T17:45:07.277Z,7.07
2019-05-18T17:47:42.710Z,5.50
2019-05-18T17:50:20.576Z,6.60
2019-05-18T17:52:55.587Z,6.83
2019-05-18T17:55:30.707Z,7.10
2019-05-18T17:58:05.807Z,7.40
2019-05-18T18:00:41.809Z,7.50
2019-05-18T18:03:16.930Z,7.17
2019-05-18T18:05:52.738Z,7.57
2019-05-18T18:08:27.882Z,8.63
2019-05-18T18:11:03.301Z,8.53
2019-05-18T18:13:38.450Z,7.93
2019-05-18T18:16:13.765Z,7.33
2019-05-18T18:18:49.442Z,8.10
2019-05-18T18:21:27.026Z,8.07
2019-05-18T18:24:05.191Z,8.07
2019-05-18T18:26:39.056Z,7.13
2019-05-18T18:29:13.603Z,7.77
2019-05-18T18:31:48.872Z,7.60
2019-05-18T18:34:24.083Z,8.87
2019-05-18T18:37:03.136Z,9.00
2019-05-18T18:39:41.143Z,7.70
2019-05-18T18:42:18.876Z,7.93
2019-05-18T18:44:54.344Z,8.30
2019-05-18T18:47:29.667Z,8.57
2019-05-18T18:50:06.572Z,10.07
2019-05-18T18:52:41.863Z,9.53
2019-05-18T18:55:17.009Z,11.03
2019-05-18T18:57:52.010Z,11.30
2019-05-18T19:00:27.411Z,12.17
2019-05-18T19:03:03.772Z,13.03
2019-05-18T19:05:39.114Z,12.30
2019-05-18T19:08:14.170Z,13.40
2019-05-18T19:10:51.626Z,13.90
2019-05-18T19:13:27.389Z,14.80
2019-05-18T19:16:03.265Z,16.10
2019-05-18T19:18:38.580Z,15.30
2019-05-18T19:21:13.915Z,15.40
2019-05-18T19:23:51.936Z,16.07
2019-05-18T19:26:28.196Z,17.10
2019-05-18T19:29:03.548Z,16.00
2019-05-18T19:31:38.841Z,18.30
2019-05-18T19:34:14.099Z,17.43
2019-05-18T19:36:49.748Z,17.60
2019-05-18T19:39:25.091Z,17.53
2019-05-18T19:42:00.511Z,17.70
2019-05-18T19:44:35.974Z,18.63
2019-05-18T19:47:11.532Z,18.70
2019-05-18T19:49:46.824Z,18.90
2019-05-18T19:52:22.130Z,18.03
2019-05-18T19:55:02.541Z,18.70
2019-05-18T19:57:39.291Z,19.57
2019-05-18T20:00:15.252Z,19.87
2019-05-18T20:02:50.761Z,18.80
2019-05-18T20:05:25.851Z,20.50
2019-05-18T20:08:01.052Z,18.23
2019-05-18T20:10:37.274Z,22.10
2019-05-18T20:13:12.459Z,18.33
2019-05-18T20:15:47.712Z,19.03
2019-05-18T20:18:22.848Z,18.40
2019-05-18T20:20:57.991Z,18.90
2019-05-18T20:23:33.758Z,18.50
2019-05-18T20:26:08.985Z,17.93
2019-05-18T20:28:44.411Z,19.60
2019-05-18T20:31:19.464Z,19.70
2019-05-18T20:33:54.632Z,19.63
2019-05-18T20:36:29.762Z,19.77
2019-05-18T20:39:06.047Z,19.47
2019-05-18T20:41:43.713Z,18.50
2019-05-18T20:44:20.605Z,19.80
2019-05-18T20:46:56.581Z,18.37
2019-05-18T20:49:31.705Z,18.37
2019-05-18T20:52:06.880Z,19.27
2019-05-18T20:54:41.876Z,24.40
2019-05-18T20:57:16.910Z,20.33
2019-05-18T20:59:52.192Z,19.67
2019-05-18T21:02:27.210Z,19.53
2019-05-18T21:05:02.300Z,21.27
2019-05-18T21:07:37.354Z,21.00
2019-05-18T21:10:12.938Z,21.63
2019-05-18T21:12:48.064Z,21.53
2019-05-18T21:15:23.141Z,23.87
2019-05-18T21:17:58.327Z,20.80
2019-05-18T21:20:34.376Z,20.57
2019-05-18T21:23:09.537Z,22.43
2019-05-18T21:25:44.553Z,22.37
2019-05-18T21:28:19.621Z,24.20
2019-05-18T21:30:55.685Z,23.00
2019-05-18T21:33:30.801Z,24.10
2019-05-18T21:36:05.838Z,23.03
2019-05-18T21:38:40.846Z,20.60
2019-05-18T21:41:16.017Z,21.97
2019-05-18T21:43:51.148Z,22.17
2019-05-18T21:46:26.157Z,23.73
2019-05-18T21:49:01.410Z,24.20
2019-05-18T21:51:36.493Z,23.23
2019-05-18T21:54:11.607Z,28.50
2019-05-18T21:56:48.029Z,25.23
2019-05-18T21:59:24.067Z,24.67
2019-05-18T22:01:59.185Z,23.77
2019-05-18T22:04:34.332Z,26.47
2019-05-18T22:07:09.377Z,27.27
2019-05-18T22:09:44.363Z,27.70
2019-05-18T22:12:19.495Z,25.57
2019-05-18T22:14:54.774Z,30.47
2019-05-18T22:17:29.956Z,28.90
2019-05-18T22:20:04.988Z,28.40
2019-05-18T22:22:40.051Z,27.97
2019-05-18T22:25:15.584Z,28.07
2019-05-18T22:27:51.402Z,26.33
2019-05-18T22:30:26.561Z,27.90
2019-05-18T22:33:01.672Z,28.00
2019-05-18T22:35:36.744Z,26.77
2019-05-18T22:38:11.867Z,28.57
2019-05-18T22:40:46.989Z,28.03
2019-05-18T22:43:21.997Z,27.13
2019-05-18T22:45:56.980Z,28.37
2019-05-18T22:48:40.998Z,28.83
2019-05-18T22:51:09.594Z,29.77
2019-05-18T22:53:46.547Z,31.53
2019-05-18T22:56:21.369Z,28.73
2019-05-18T22:58:56.485Z,27.50
2019-05-18T23:01:31.461Z,34.40
2019-05-18T23:04:06.466Z,27.23
2019-05-18T23:06:41.587Z,30.03
2019-05-18T23:09:16.769Z,30.87
2019-05-18T23:11:51.877Z,26.67
2019-05-18T23:14:27.964Z,26.57
2019-05-18T23:17:03.023Z,26.30
2019-05-18T23:19:38.127Z,29.93
2019-05-18T23:22:13.147Z,29.80
2019-05-18T23:24:49.106Z,29.37
2019-05-18T23:27:24.142Z,27.83
2019-05-18T23:29:59.610Z,28.47
2019-05-18T23:32:35.573Z,27.53
2019-05-18T23:35:11.148Z,25.50
2019-05-18T23:37:47.451Z,25.70
2019-05-18T23:40:22.547Z,24.27
2019-05-18T23:42:57.538Z,25.03
2019-05-18T23:45:32.642Z,24.20
2019-05-18T23:48:07.654Z,26.77
2019-05-18T23:50:42.628Z,24.07
2019-05-18T23:53:17.653Z,24.57
2019-05-18T23:55:53.443Z,25.03
2019-05-18T23:58:28.947Z,26.67
